Time;durP1;ratioP1;P1;durP2;ratioP2;P2;SDS_P1;SDS_P2;PMS_P1;PMS_P2;Temp;Humidity;BMP_temperature;BMP_pressure;BME280_temperature;BME280_humidity;BME280_pressure;Samples;Min_cycle;Max_cycle;Signal;HPM_P1;HPM_P2
2023/06/02 00:01:49;;;;;;;1.07;1.07;;;17.20;41.60;16.60;95976.00;;;;5013465;28;20619;-58
2023/06/02 00:04:17;;;;;;;1.23;1.23;;;17.20;42.10;16.40;95978.00;;;;5013757;28;20688;-57
2023/06/02 00:06:45;;;;;;;1.43;1.40;;;17.10;42.50;16.50;95978.00;;;;5013300;28;20193;-57
2023/06/02 00:09:14;;;;;;;1.07;1.07;;;17.10;42.70;16.50;95970.00;;;;5013151;28;20206;-58
2023/06/02 00:11:41;;;;;;;1.00;1.00;;;17.10;42.50;16.40;95967.00;;;;5013465;28;20563;-57
2023/06/02 00:14:08;;;;;;;1.00;1.00;;;17.00;42.30;16.40;95967.00;;;;5013441;28;20196;-58
2023/06/02 00:16:47;;;;;;;1.63;1.53;;;17.00;42.40;16.40;95965.00;;;;5013585;28;20217;-58
2023/06/02 00:19:14;;;;;;;1.77;1.67;;;16.90;41.90;16.30;95966.00;;;;5013042;28;20312;-57
2023/06/02 00:21:45;;;;;;;1.13;1.13;;;17.00;42.00;16.20;95970.00;;;;5013032;28;20222;-58
2023/06/02 00:24:13;;;;;;;2.00;1.57;;;16.90;42.00;16.20;95966.00;;;;5013391;28;20192;-58
2023/06/02 00:26:40;;;;;;;8.80;2.30;;;16.90;42.10;16.30;95973.00;;;;5013183;28;20189;-58
2023/06/02 00:29:08;;;;;;;1.47;1.37;;;16.80;41.30;16.20;95972.00;;;;5012971;28;20672;-58
2023/06/02 00:31:35;;;;;;;1.33;1.07;;;16.90;41.00;16.20;95971.00;;;;5013516;28;20739;-58
2023/06/02 00:34:02;;;;;;;1.50;1.33;;;16.90;41.20;16.10;95973.00;;;;5013003;28;20224;-57
2023/06/02 00:36:29;;;;;;;1.73;1.63;;;16.80;41.90;16.00;95962.00;;;;5013539;28;20232;-57
2023/06/02 00:38:57;;;;;;;1.07;1.07;;;16.60;42.60;15.90;95963.00;;;;5012914;28;20209;-58
2023/06/02 00:41:25;;;;;;;1.20;1.20;;;16.60;43.50;15.90;95971.00;;;;5012940;28;20223;-58
2023/06/02 00:43:53;;;;;;;3.60;1.73;;;16.50;44.10;15.80;95971.00;;;;5011677;28;20265;-58
2023/06/02 00:46:20;;;;;;;1.37;1.27;;;16.50;44.00;15.70;95964.00;;;;5013100;28;20194;-58
2023/06/02 00:48:49;;;;;;;1.40;1.40;;;16.40;44.70;15.80;95967.00;;;;5016394;28;20210;-58
2023/06/02 00:51:16;;;;;;;1.60;1.50;;;16.40;44.00;15.80;95973.00;;;;5016783;28;20297;-57
2023/06/02 00:53:45;;;;;;;1.33;1.23;;;16.40;44.20;15.90;95963.00;;;;5016391;28;20268;-57
2023/06/02 00:56:14;;;;;;;1.77;1.67;;;16.40;44.00;15.90;95967.00;;;;5016676;28;20201;-57
2023/06/02 00:58:45;;;;;;;1.67;1.30;;;16.40;43.60;15.60;95966.00;;;;5016426;28;20209;-59
2023/06/02 01:01:13;;;;;;;1.43;1.43;;;16.40;44.10;15.70;95965.00;;;;5016787;28;20256;-57
2023/06/02 01:03:43;;;;;;;0.70;0.70;;;16.30;45.30;15.60;95976.00;;;;5016235;28;20186;-57
2023/06/02 01:06:13;;;;;;;1.23;1.23;;;16.30;45.00;15.40;95977.00;;;;5016038;28;20185;-57
2023/06/02 01:08:43;;;;;;;1.67;1.57;;;16.10;45.10;15.20;95977.00;;;;5016098;28;20217;-58
2023/06/02 01:11:11;;;;;;;1.27;1.27;;;15.90;45.10;15.40;95966.00;;;;5016084;28;20273;-58
2023/06/02 01:13:38;;;;;;;1.47;1.37;;;16.00;45.40;15.30;95958.00;;;;5016062;28;20181;-59
2023/06/02 01:16:07;;;;;;;1.10;1.10;;;15.90;45.30;15.20;95962.00;;;;5014714;28;20580;-58
2023/06/02 01:18:40;;;;;;;1.30;1.30;;;15.80;45.30;15.00;95959.00;;;;5015842;28;20700;-58
2023/06/02 01:21:09;;;;;;;1.93;1.60;;;15.70;45.50;15.00;95970.00;;;;5016154;28;20232;-59
2023/06/02 01:23:36;;;;;;;1.10;1.10;;;15.70;46.10;15.10;95970.00;;;;5015839;28;20308;-58
2023/06/02 01:26:06;;;;;;;2.13;1.50;;;15.70;45.80;15.10;95959.00;;;;5016078;28;20194;-58
2023/06/02 01:28:33;;;;;;;2.80;1.80;;;15.70;45.70;15.20;95966.00;;;;5016223;28;20244;-58
2023/06/02 01:31:11;;;;;;;1.47;1.37;;;15.80;45.50;15.00;95962.00;;;;5014693;28;20200;-58
2023/06/02 01:33:51;;;;;;;1.43;1.27;;;15.70;45.70;15.10;95958.00;;;;5015701;28;20186;-59
2023/06/02 01:36:23;;;;;;;1.13;1.07;;;15.70;45.70;15.10;95954.00;;;;5015935;28;20181;-58
2023/06/02 01:38:53;;;;;;;1.37;1.37;;;15.70;45.20;15.10;95961.00;;;;5015680;28;20209;-58
2023/06/02 01:41:22;;;;;;;1.60;1.43;;;15.80;45.30;14.80;95954.00;;;;5015848;28;20272;-59
2023/06/02 01:43:50;;;;;;;2.10;1.80;;;15.50;45.80;14.80;95962.00;;;;5014209;28;20197;-59
2023/06/02 01:46:18;;;;;;;2.13;1.43;;;15.50;46.50;14.80;95956.00;;;;5015446;28;20649;-59
2023/06/02 01:48:45;;;;;;;1.97;1.87;;;15.40;47.00;14.80;95967.00;;;;5014038;28;20293;-58
2023/06/02 01:51:12;;;;;;;2.07;1.97;;;15.40;47.10;14.80;95965.00;;;;5015587;28;20552;-58
2023/06/02 01:53:39;;;;;;;1.63;1.53;;;15.40;47.10;14.80;95962.00;;;;5016360;28;20197;-58
2023/06/02 01:56:06;;;;;;;1.23;1.23;;;15.40;47.50;14.70;95963.00;;;;5015146;28;20213;-58
2023/06/02 01:58:36;;;;;;;1.67;1.57;;;15.30;47.50;14.60;95970.00;;;;5014224;28;20217;-58
2023/06/02 02:01:03;;;;;;;2.43;1.47;;;15.30;48.10;14.50;95955.00;;;;5015665;28;20228;-59
2023/06/02 02:03:30;;;;;;;1.03;1.03;;;15.20;52.40;14.50;95952.00;;;;5015282;28;20247;-58
2023/06/02 02:05:57;;;;;;;1.63;1.53;;;15.20;50.90;14.50;95957.00;;;;5015219;28;20280;-58
2023/06/02 02:08:24;;;;;;;0.90;0.90;;;15.30;61.10;14.50;95959.00;;;;5015204;28;20220;-56
2023/06/02 02:10:52;;;;;;;2.20;1.50;;;;;14.40;95955.00;;;;5014800;28;20243;-56
2023/06/02 02:13:19;;;;;;;1.50;1.40;;;15.00;47.10;14.40;95956.00;;;;5014846;28;20190;-56
2023/06/02 02:15:47;;;;;;;1.20;1.20;;;15.00;47.90;14.40;95952.00;;;;5014790;28;20244;-56
2023/06/02 02:18:15;;;;;;;1.73;1.63;;;15.10;63.20;14.30;95947.00;;;;5014641;28;20221;-57
2023/06/02 02:20:42;;;;;;;5.63;1.67;;;;;14.40;95943.00;;;;5013717;28;20204;-61
2023/06/02 02:23:10;;;;;;;4.43;1.60;;;15.00;47.40;14.30;95942.00;;;;5014822;28;20579;-57
2023/06/02 02:25:37;;;;;;;2.20;1.97;;;15.00;48.10;14.30;95949.00;;;;5014595;28;20189;-58
2023/06/02 02:28:04;;;;;;;1.00;1.00;;;14.90;48.30;14.30;95939.00;;;;5014764;28;20216;-57
2023/06/02 02:30:31;;;;;;;1.17;1.17;;;14.90;56.90;14.30;95948.00;;;;5014787;28;20663;-58
2023/06/02 02:33:02;;;;;;;1.47;1.37;;;;;14.20;95943.00;;;;5014738;28;20549;-57
2023/06/02 02:35:29;;;;;;;1.00;1.00;;;14.90;47.30;14.10;95950.00;;;;5014815;28;20188;-58
2023/06/02 02:37:56;;;;;;;0.97;0.97;;;14.80;48.50;14.00;95957.00;;;;5013053;28;20653;-57
2023/06/02 02:40:23;;;;;;;1.00;1.00;;;14.70;54.30;14.00;95947.00;;;;5014800;28;20201;-57
2023/06/02 02:42:51;;;;;;;1.43;1.43;;;;;14.10;95957.00;;;;5014284;28;20228;-58
2023/06/02 02:45:18;;;;;;;1.50;1.40;;;;;14.00;95962.00;;;;5014543;28;20209;-57
2023/06/02 02:47:46;;;;;;;1.00;1.00;;;;;13.90;95956.00;;;;5014351;28;20728;-58
2023/06/02 02:50:14;;;;;;;1.10;1.00;;;;;13.80;95955.00;;;;5014260;28;20197;-58
2023/06/02 02:52:42;;;;;;;1.07;1.00;;;;;13.90;95949.00;;;;5014077;28;20192;-58
2023/06/02 02:55:09;;;;;;;0.80;0.80;;;;;13.90;95959.00;;;;5014146;28;20200;-58
2023/06/02 02:57:37;;;;;;;1.27;1.27;;;14.50;48.70;13.80;95954.00;;;;5014502;28;20217;-58
2023/06/02 03:00:07;;;;;;;1.33;1.33;;;14.50;49.00;13.80;95955.00;;;;5014042;28;20597;-58
2023/06/02 03:02:34;;;;;;;1.40;1.30;;;14.50;49.30;13.70;95950.00;;;;5013946;28;20206;-58
2023/06/02 03:05:02;;;;;;;3.30;1.47;;;14.40;49.40;13.70;95956.00;;;;5013959;28;20197;-58
2023/06/02 03:07:31;;;;;;;0.87;0.87;;;14.30;49.70;13.70;95953.00;;;;5014108;28;20220;-58
2023/06/02 03:09:58;;;;;;;1.00;1.00;;;14.20;50.00;13.60;95949.00;;;;5013826;28;20189;-58
2023/06/02 03:12:25;;;;;;;0.73;0.73;;;14.30;49.80;13.70;95957.00;;;;5013804;28;20202;-58
2023/06/02 03:14:52;;;;;;;4.60;1.53;;;14.30;49.70;13.60;95961.00;;;;5014009;28;20525;-58
2023/06/02 03:17:20;;;;;;;0.80;0.80;;;14.30;49.40;13.70;95958.00;;;;5013547;28;20190;-59
2023/06/02 03:19:47;;;;;;;0.90;0.90;;;14.30;49.10;13.60;95958.00;;;;5013796;28;20182;-58
2023/06/02 03:22:14;;;;;;;1.73;1.47;;;14.30;49.00;13.50;95960.00;;;;5013583;28;20218;-58
2023/06/02 03:24:42;;;;;;;1.70;1.60;;;14.20;49.20;13.50;95960.00;;;;5014193;28;20531;-58
2023/06/02 03:27:13;;;;;;;1.73;1.63;;;14.20;49.80;13.50;95948.00;;;;5013879;28;20200;-58
2023/06/02 03:29:40;;;;;;;1.30;1.30;;;14.20;49.50;13.40;95958.00;;;;5012417;28;20560;-58
2023/06/02 03:32:11;;;;;;;1.83;1.73;;;14.10;49.50;13.20;95970.00;;;;5013577;28;20197;-58
2023/06/02 03:34:39;;;;;;;3.13;2.03;;;14.00;49.60;13.20;95965.00;;;;5014170;28;20174;-58
2023/06/02 03:37:06;;;;;;;0.80;0.80;;;13.90;50.40;13.20;95961.00;;;;5013476;28;20189;-58
2023/06/02 03:39:33;;;;;;;2.13;1.97;;;13.80;50.90;13.20;95972.00;;;;5013660;28;20202;-58
2023/06/02 03:42:04;;;;;;;0.97;0.97;;;13.80;50.10;13.20;95957.00;;;;5013415;28;20552;-58
2023/06/02 03:44:32;;;;;;;1.13;1.13;;;13.80;50.40;13.30;95970.00;;;;5013429;28;20198;-58
2023/06/02 03:46:59;;;;;;;0.93;0.93;;;13.80;50.20;13.30;95967.00;;;;5013427;28;20190;-58
2023/06/02 03:49:29;;;;;;;1.07;1.07;;;13.90;49.90;13.30;95972.00;;;;5013252;28;20213;-58
2023/06/02 03:51:56;;;;;;;0.90;0.90;;;13.90;49.70;13.40;95964.00;;;;5013361;28;20193;-58
2023/06/02 03:54:23;;;;;;;1.57;1.43;;;14.00;49.50;13.30;95970.00;;;;5013566;28;20198;-58
2023/06/02 03:56:50;;;;;;;1.43;1.37;;;14.00;49.30;13.20;95971.00;;;;5013379;28;20193;-58
2023/06/02 03:59:19;;;;;;;2.90;1.63;;;13.90;49.10;13.10;95979.00;;;;5013282;28;20212;-58
2023/06/02 04:01:46;;;;;;;1.57;1.47;;;13.80;49.80;13.20;95972.00;;;;5012045;28;20205;-58
2023/06/02 04:04:13;;;;;;;1.70;1.60;;;13.90;49.80;13.30;95978.00;;;;5013475;28;20213;-58
2023/06/02 04:06:41;;;;;;;1.23;1.23;;;13.90;49.90;13.30;95975.00;;;;5013482;28;20190;-58
2023/06/02 04:09:11;;;;;;;2.00;1.63;;;14.00;49.50;13.20;95983.00;;;;5013144;28;20217;-58
2023/06/02 04:11:40;;;;;;;1.00;1.00;;;13.90;50.20;13.20;95976.00;;;;5011937;28;20288;-58
2023/06/02 04:14:07;;;;;;;1.77;1.63;;;13.90;50.50;13.20;95975.00;;;;5013177;28;20196;-58
2023/06/02 04:16:36;;;;;;;1.37;1.37;;;13.80;50.90;13.10;95976.00;;;;5013218;28;20197;-58
2023/06/02 04:19:05;;;;;;;1.90;1.80;;;13.70;51.30;13.10;95979.00;;;;5013033;28;20251;-58
2023/06/02 04:21:32;;;;;;;1.77;1.67;;;13.70;52.00;13.20;95983.00;;;;5013816;28;20197;-58
2023/06/02 04:23:59;;;;;;;5.60;1.60;;;13.80;51.30;13.20;95978.00;;;;5016763;28;20225;-58
2023/06/02 04:26:26;;;;;;;2.57;1.30;;;13.80;51.40;13.10;95977.00;;;;5017176;28;20196;-57
2023/06/02 04:28:53;;;;;;;0.87;0.87;;;13.80;51.20;13.10;95986.00;;;;5016847;28;20575;-57
2023/06/02 04:31:26;;;;;;;1.47;1.47;;;13.70;51.60;13.20;95988.00;;;;5016759;28;20190;-58
2023/06/02 04:33:55;;;;;;;1.80;1.47;;;13.80;51.20;13.30;95990.00;;;;5017055;28;20188;-57
2023/06/02 04:36:22;;;;;;;1.13;1.13;;;13.90;51.80;13.30;95989.00;;;;5016842;28;20679;-58
2023/06/02 04:38:49;;;;;;;1.13;1.13;;;13.90;51.20;13.30;95989.00;;;;5016652;28;20205;-58
2023/06/02 04:41:16;;;;;;;1.00;1.00;;;13.90;51.10;13.10;95982.00;;;;5016651;28;20189;-58
2023/06/02 04:43:43;;;;;;;1.63;1.53;;;13.80;51.30;13.30;95995.00;;;;5016544;28;20221;-59
2023/06/02 04:46:11;;;;;;;1.10;1.10;;;13.90;51.60;13.40;95990.00;;;;5016851;28;20197;-59
2023/06/02 04:48:40;;;;;;;5.40;1.83;;;14.00;51.40;13.40;95980.00;;;;5016761;28;20548;-58
2023/06/02 04:51:09;;;;;;;1.57;1.47;;;14.00;51.00;13.40;95989.00;;;;5016662;28;20220;-58
2023/06/02 04:53:36;;;;;;;1.30;1.30;;;14.10;51.20;13.50;95988.00;;;;5016395;28;20197;-58
2023/06/02 04:56:03;;;;;;;1.47;1.37;;;14.10;50.90;13.60;95994.00;;;;5015745;28;20199;-57
2023/06/02 04:58:30;;;;;;;1.67;1.60;;;14.10;50.60;13.70;96002.00;;;;5016739;28;20575;-57
2023/06/02 05:00:57;;;;;;;2.30;1.13;;;14.20;50.00;13.80;95999.00;;;;5016286;28;20189;-57
2023/06/02 05:03:24;;;;;;;1.80;1.70;;;14.30;49.70;13.90;96004.00;;;;5016875;28;20225;-57
2023/06/02 05:05:52;;;;;;;4.93;1.67;;;14.40;49.10;13.80;95995.00;;;;5016783;28;20267;-57
2023/06/02 05:08:21;;;;;;;0.90;0.90;;;14.40;49.20;14.00;95996.00;;;;5016577;28;20620;-58
2023/06/02 05:10:48;;;;;;;2.00;1.47;;;14.60;48.80;14.00;95999.00;;;;5016096;28;20216;-57
2023/06/02 05:13:18;;;;;;;1.90;1.80;;;14.60;49.00;14.10;96003.00;;;;5014800;28;20197;-58
2023/06/02 05:15:45;;;;;;;1.73;1.63;;;14.70;49.40;14.20;96001.00;;;;5016151;28;20185;-58
2023/06/02 05:18:14;;;;;;;1.07;1.07;;;14.70;49.30;14.10;96003.00;;;;5015888;28;20228;-58
2023/06/02 05:20:41;;;;;;;1.33;1.33;;;14.70;49.70;14.20;96000.00;;;;5016365;28;20197;-58
2023/06/02 05:23:08;;;;;;;1.33;1.33;;;14.90;49.90;14.40;96000.00;;;;5015796;28;20308;-58
2023/06/02 05:25:40;;;;;;;1.73;1.63;;;14.90;49.70;14.30;95995.00;;;;5015860;28;20186;-58
2023/06/02 05:28:08;;;;;;;1.30;1.10;;;15.00;49.50;14.50;96002.00;;;;5015775;28;20206;-58
2023/06/02 05:30:36;;;;;;;1.23;1.10;;;15.00;49.70;14.40;96002.00;;;;5015625;28;20189;-58
2023/06/02 05:33:03;;;;;;;1.50;1.47;;;15.00;49.60;14.30;95999.00;;;;5014392;28;20201;-58
2023/06/02 05:35:30;;;;;;;3.03;1.63;;;15.00;50.10;14.30;96002.00;;;;5015298;28;20200;-58
2023/06/02 05:37:57;;;;;;;1.30;1.30;;;14.90;49.90;14.40;96004.00;;;;5015513;28;20216;-58
2023/06/02 05:40:24;;;;;;;3.50;1.77;;;15.00;49.90;14.50;95992.00;;;;5015552;28;20531;-58
2023/06/02 05:42:52;;;;;;;0.90;0.90;;;15.10;50.40;14.60;95997.00;;;;5015546;28;20190;-58
2023/06/02 05:45:19;;;;;;;2.43;2.03;;;15.20;49.90;14.50;95993.00;;;;5014050;28;20208;-58
2023/06/02 05:47:48;;;;;;;1.60;1.50;;;15.10;49.80;14.60;96002.00;;;;5015308;28;20220;-58
2023/06/02 05:50:15;;;;;;;1.50;1.40;;;15.20;49.60;14.70;96000.00;;;;5015772;28;20212;-58
2023/06/02 05:52:43;;;;;;;1.53;1.43;;;15.20;49.70;14.80;95994.00;;;;5015851;28;20193;-58
2023/06/02 05:55:10;;;;;;;2.27;2.17;;;15.30;50.00;14.70;95996.00;;;;5015235;28;20189;-58
2023/06/02 05:57:37;;;;;;;0.83;0.83;;;15.30;49.70;14.70;95998.00;;;;5015575;28;20217;-58
2023/06/02 06:00:08;;;;;;;2.33;2.13;;;15.30;50.20;14.70;95998.00;;;;5015471;28;20189;-58
2023/06/02 06:02:37;;;;;;;1.53;1.43;;;15.30;50.10;14.80;95998.00;;;;5015460;28;20186;-58
2023/06/02 06:05:06;;;;;;;1.13;1.13;;;15.40;49.90;14.90;96005.00;;;;5015037;28;20213;-58
2023/06/02 06:07:33;;;;;;;1.17;1.17;;;15.40;49.70;14.90;96002.00;;;;5014966;28;20393;-58
2023/06/02 06:10:00;;;;;;;2.03;1.90;;;15.40;50.20;14.80;96008.00;;;;5015295;28;20220;-58
2023/06/02 06:12:27;;;;;;;3.07;2.03;;;15.40;50.20;14.90;96001.00;;;;5015101;28;20192;-58
2023/06/02 06:14:54;;;;;;;2.30;1.93;;;15.40;49.80;15.00;95998.00;;;;5014935;28;20220;-58
2023/06/02 06:17:23;;;;;;;2.23;2.13;;;15.60;50.10;15.10;96014.00;;;;5014906;28;20217;-58
2023/06/02 06:19:50;;;;;;;1.53;1.47;;;15.60;49.60;15.00;96009.00;;;;5015412;28;20193;-58
2023/06/02 06:22:17;;;;;;;2.23;1.90;;;15.70;49.70;15.10;96006.00;;;;5014742;28;20200;-58
2023/06/02 06:24:44;;;;;;;1.33;1.30;;;15.70;50.20;15.10;96008.00;;;;5010616;28;20272;-56
2023/06/02 06:27:12;;;;;;;1.17;1.10;;;15.70;50.40;15.10;96012.00;;;;5011029;28;20198;-57
2023/06/02 06:29:39;;;;;;;1.77;1.67;;;15.70;50.50;15.30;96005.00;;;;5011117;28;20205;-57
2023/06/02 06:32:08;;;;;;;1.10;1.10;;;15.70;50.80;15.30;96015.00;;;;5011341;28;20209;-58
2023/06/02 06:34:36;;;;;;;1.30;1.30;;;15.80;51.20;15.40;96014.00;;;;5012046;28;20216;-57
2023/06/02 06:37:04;;;;;;;1.23;1.20;;;15.90;50.70;15.40;96021.00;;;;5012848;28;20628;-57
2023/06/02 06:39:31;;;;;;;1.60;1.57;;;15.90;50.30;15.40;96018.00;;;;5012687;28;20209;-56
2023/06/02 06:41:58;;;;;;;2.20;2.07;;;16.00;50.30;15.50;96019.00;;;;5012805;28;20206;-56
2023/06/02 06:44:25;;;;;;;1.33;1.33;;;16.00;50.00;15.70;96016.00;;;;5009943;28;20217;-58
2023/06/02 06:46:52;;;;;;;1.00;1.00;;;16.20;49.50;15.70;96015.00;;;;5012817;28;20209;-59
2023/06/02 06:49:19;;;;;;;1.70;1.60;;;16.20;48.40;15.70;96013.00;;;;5011901;28;20222;-59
2023/06/02 06:51:48;;;;;;;1.63;1.53;;;16.20;49.50;15.70;96017.00;;;;5012666;28;21553;-59
2023/06/02 06:54:15;;;;;;;0.67;0.67;;;16.20;49.20;15.80;96015.00;;;;5012252;28;20201;-59
2023/06/02 06:56:45;;;;;;;1.27;1.27;;;16.40;50.10;15.90;96013.00;;;;5011311;28;20669;-59
2023/06/02 06:59:12;;;;;;;1.57;1.47;;;16.40;49.20;15.90;96018.00;;;;5010891;28;20614;-59
2023/06/02 07:01:40;;;;;;;1.30;1.20;;;16.40;48.90;16.00;96016.00;;;;5011853;28;20232;-59
2023/06/02 07:04:10;;;;;;;1.00;1.00;;;16.40;49.30;16.00;96020.00;;;;5011860;28;20304;-59
2023/06/02 07:06:38;;;;;;;1.47;1.37;;;16.50;49.20;16.20;96022.00;;;;5012357;28;20208;-59
2023/06/02 07:09:08;;;;;;;1.13;1.13;;;16.60;48.90;16.20;96031.00;;;;5026697;28;20708;-59
2023/06/02 07:11:35;;;;;;;1.83;1.73;;;16.70;49.00;16.30;96024.00;;;;5023658;28;20282;-59
2023/06/02 07:14:02;;;;;;;1.23;1.10;;;16.80;48.30;16.40;96025.00;;;;5011444;28;20692;-59
2023/06/02 07:16:29;;;;;;;31.73;2.50;;;16.90;48.00;16.50;96021.00;;;;5012396;28;20565;-59
2023/06/02 07:18:57;;;;;;;1.70;1.53;;;17.00;47.80;16.40;96022.00;;;;5019340;22;20321;-59
2023/06/02 07:21:24;;;;;;;0.67;0.67;;;16.90;48.00;16.70;96024.00;;;;4973087;28;20191;-59
2023/06/02 07:23:51;;;;;;;3.20;2.63;;;17.10;47.70;16.70;96023.00;;;;4972032;28;20330;-59
2023/06/02 07:26:22;;;;;;;1.60;1.50;;;17.20;47.10;16.80;96025.00;;;;4972616;28;20199;-62
2023/06/02 07:28:49;;;;;;;1.90;1.67;;;17.30;46.80;16.80;96029.00;;;;4970891;28;20693;-60
2023/06/02 07:31:17;;;;;;;2.87;2.67;;;17.30;46.80;16.90;96019.00;;;;4973080;28;20198;-60
2023/06/02 07:33:45;;;;;;;1.97;1.87;;;17.30;46.60;16.80;96021.00;;;;4972877;28;20206;-60
2023/06/02 07:36:12;;;;;;;2.13;2.03;;;17.30;46.80;16.80;96024.00;;;;4972409;28;20230;-60
2023/06/02 07:38:39;;;;;;;2.07;1.97;;;17.30;47.30;16.80;96025.00;;;;4972537;28;20198;-59
2023/06/02 07:41:07;;;;;;;1.70;1.60;;;17.30;47.10;16.90;96021.00;;;;4984293;28;20238;-60
2023/06/02 07:43:35;;;;;;;1.37;1.37;;;17.30;46.60;16.90;96024.00;;;;4972316;28;20249;-61
2023/06/02 07:46:03;;;;;;;1.93;1.77;;;17.40;47.40;17.00;96023.00;;;;4972999;28;20191;-61
2023/06/02 07:48:30;;;;;;;2.00;1.90;;;17.50;47.90;17.10;96032.00;;;;4972409;28;20674;-61
2023/06/02 07:50:57;;;;;;;1.47;1.43;;;17.60;46.90;17.20;96018.00;;;;4973022;28;20201;-60
2023/06/02 07:53:25;;;;;;;1.17;1.17;;;17.70;47.30;17.20;96026.00;;;;4971039;28;20210;-60
2023/06/02 07:55:52;;;;;;;1.37;1.37;;;17.60;46.20;17.20;96023.00;;;;4973127;28;20222;-60
2023/06/02 07:58:19;;;;;;;1.07;1.07;;;17.70;46.10;17.30;96029.00;;;;4971296;28;20578;-61
2023/06/02 08:00:49;;;;;;;1.07;1.03;;;17.80;46.00;17.50;96022.00;;;;4972244;28;20712;-60
2023/06/02 08:03:16;;;;;;;1.80;1.70;;;17.90;45.90;17.50;96028.00;;;;4972430;28;20234;-61
2023/06/02 08:05:44;;;;;;;1.93;1.73;;;17.90;45.10;17.50;96025.00;;;;4981374;28;20214;-62
2023/06/02 08:08:12;;;;;;;2.53;1.93;;;18.00;45.40;17.80;96030.00;;;;4995678;28;20281;-61
2023/06/02 08:10:40;;;;;;;5.20;1.50;;;18.10;45.10;17.70;96018.00;;;;4995764;28;20221;-60
2023/06/02 08:13:08;;;;;;;3.80;2.37;;;18.10;44.70;17.70;96022.00;;;;4996114;28;20202;-60
2023/06/02 08:15:35;;;;;;;2.47;1.90;;;18.30;44.80;17.80;96031.00;;;;4995462;28;20212;-61
2023/06/02 08:18:04;;;;;;;1.23;1.23;;;18.30;44.60;17.90;96029.00;;;;4993935;28;20206;-61
2023/06/02 08:20:31;;;;;;;0.83;0.83;;;18.40;45.50;18.00;96018.00;;;;4996179;28;20222;-62
2023/06/02 08:22:58;;;;;;;1.27;1.27;;;18.50;44.60;18.20;96028.00;;;;4994186;28;20201;-60
2023/06/02 08:25:26;;;;;;;1.27;1.17;;;18.60;44.30;18.20;96016.00;;;;4994009;28;20246;-60
2023/06/02 08:27:53;;;;;;;2.00;1.40;;;18.60;43.70;18.30;96018.00;;;;4990314;28;20195;-60
2023/06/02 08:30:21;;;;;;;1.43;1.33;;;18.80;43.30;18.30;96018.00;;;;4975344;28;20217;-61
2023/06/02 08:32:49;;;;;;;1.83;1.73;;;18.80;43.20;18.30;96013.00;;;;4975765;28;20227;-59
2023/06/02 08:35:18;;;;;;;6.67;2.07;;;18.70;43.20;18.40;96014.00;;;;4975869;28;20195;-61
2023/06/02 08:37:45;;;;;;;1.10;1.10;;;18.80;43.00;18.30;96016.00;;;;4975950;28;20221;-59
2023/06/02 08:40:16;;;;;;;1.07;1.07;;;18.80;43.30;18.60;96017.00;;;;4975154;28;20564;-60
2023/06/02 08:42:43;;;;;;;1.33;1.33;;;19.00;43.10;18.50;96019.00;;;;4976063;28;20191;-61
2023/06/02 08:45:11;;;;;;;2.20;2.10;;;19.00;42.40;18.70;96017.00;;;;4975102;28;20305;-60
2023/06/02 08:47:44;;;;;;;1.97;1.87;;;19.10;42.40;18.70;96010.00;;;;4975807;28;20736;-60
2023/06/02 08:50:11;;;;;;;1.03;1.03;;;19.20;42.70;18.80;96009.00;;;;4975017;28;20221;-60
2023/06/02 08:52:45;;;;;;;1.13;1.13;;;19.30;42.00;18.80;96015.00;;;;4975847;28;20673;-61
2023/06/02 08:55:13;;;;;;;3.50;2.40;;;19.30;41.50;18.80;96015.00;;;;4975147;28;20197;-61
2023/06/02 08:57:40;;;;;;;1.77;1.67;;;19.30;41.50;19.00;96010.00;;;;4975714;28;20199;-61
2023/06/02 09:00:10;;;;;;;1.47;1.37;;;19.30;42.80;19.10;96016.00;;;;4975106;28;20226;-61
2023/06/02 09:02:37;;;;;;;1.30;1.27;;;19.50;41.80;19.20;96020.00;;;;4975246;28;20199;-62
2023/06/02 09:05:07;;;;;;;2.60;2.37;;;19.50;41.50;19.10;96020.00;;;;4975189;28;20690;-60
2023/06/02 09:07:34;;;;;;;2.37;1.73;;;19.50;40.90;19.20;96022.00;;;;4973603;28;20206;-60
2023/06/02 09:10:03;;;;;;;1.53;1.43;;;19.60;41.50;19.30;96014.00;;;;4988731;28;20222;-60
2023/06/02 09:12:31;;;;;;;2.07;1.97;;;19.60;40.80;19.30;96019.00;;;;4994567;28;20681;-60
2023/06/02 09:15:11;;;;;;;1.97;1.87;;;19.70;40.70;19.30;96021.00;;;;4980627;28;20590;-60
2023/06/02 09:17:38;;;;;;;1.13;1.13;;;19.70;40.90;19.30;96014.00;;;;4975069;28;20230;-60
2023/06/02 09:20:10;;;;;;;1.57;1.47;;;19.70;40.60;19.40;96010.00;;;;4974815;28;20593;-60
2023/06/02 09:22:53;;;;;;;1.13;1.13;;;19.70;40.90;19.50;96012.00;;;;4974949;28;20270;-60
2023/06/02 09:25:27;;;;;;;1.33;1.27;;;19.80;40.50;19.40;96004.00;;;;4972953;28;20298;-60
2023/06/02 09:27:56;;;;;;;1.30;1.20;;;19.80;40.40;19.50;96015.00;;;;4984641;28;20202;-60
2023/06/02 09:30:24;;;;;;;1.50;1.33;;;19.90;40.60;19.70;96010.00;;;;4970359;28;20225;-60
2023/06/02 09:32:56;;;;;;;2.20;2.00;;;20.10;40.30;19.70;96009.00;;;;4974252;28;20273;-60
2023/06/02 09:35:35;;;;;;;1.57;1.47;;;20.10;39.30;19.70;96014.00;;;;4984046;28;20195;-60
2023/06/02 09:38:05;;;;;;;1.77;1.67;;;20.10;40.10;19.70;96007.00;;;;4994062;28;20220;-61
2023/06/02 09:40:35;;;;;;;3.23;1.93;;;20.20;39.50;19.80;96008.00;;;;4993955;28;20214;-60
2023/06/02 09:43:04;;;;;;;12.17;1.87;;;20.20;39.40;19.70;96009.00;;;;4976497;28;20745;-61
2023/06/02 09:45:32;;;;;;;1.93;1.83;;;20.20;39.30;19.70;96009.00;;;;4974561;28;20297;-61
2023/06/02 09:48:00;;;;;;;1.57;1.47;;;20.20;39.70;19.80;96017.00;;;;4974444;28;20249;-61
2023/06/02 09:50:36;;;;;;;1.27;1.27;;;20.20;40.80;19.90;96007.00;;;;4974250;28;20249;-61
2023/06/02 09:53:06;;;;;;;1.40;1.40;;;20.30;39.30;19.90;96019.00;;;;4974435;28;20206;-61
2023/06/02 09:55:37;;;;;;;0.97;0.97;;;20.30;40.60;20.00;96012.00;;;;4974197;28;20202;-61
2023/06/02 09:58:05;;;;;;;1.27;1.13;;;20.40;39.00;20.10;96016.00;;;;4970094;28;20193;-61
2023/06/02 10:00:35;;;;;;;1.40;1.30;;;20.50;39.10;20.10;95998.00;;;;4975595;28;20809;-61
2023/06/02 10:03:02;;;;;;;1.37;1.33;;;20.50;39.60;20.20;96020.00;;;;4993186;28;20198;-61
2023/06/02 10:05:30;;;;;;;2.53;2.33;;;20.60;39.70;20.20;96020.00;;;;4993647;28;20226;-61
2023/06/02 10:08:11;;;;;;;1.63;1.43;;;20.60;39.00;20.30;96020.00;;;;4993694;28;20289;-61
2023/06/02 10:10:56;;;;;;;1.73;1.63;;;20.70;39.10;20.30;96011.00;;;;4993448;28;20225;-61
2023/06/02 10:13:50;;;;;;;3.77;3.47;;;20.80;37.90;20.30;96015.00;;;;5008606;28;20201;-61
2023/06/02 10:16:39;;;;;;;1.60;1.50;;;20.70;37.20;20.40;96015.00;;;;4993226;28;20190;-60
2023/06/02 10:19:52;;;;;;;2.88;1.52;;;20.90;38.10;20.50;96011.00;;;;4992038;28;20578;-59
2023/06/02 10:22:55;;;;;;;2.50;1.17;;;20.90;37.30;20.50;96008.00;;;;4993189;28;20193;-60
2023/06/02 10:25:34;;;;;;;1.25;1.15;;;20.90;36.10;20.50;96008.00;;;;4986082;28;20199;-59
2023/06/02 10:28:06;;;;;;;1.65;1.55;;;21.00;35.60;20.80;96013.00;;;;4973088;28;20191;-60
2023/06/02 10:30:35;;;;;;;4.10;1.85;;;21.20;36.50;20.90;96006.00;;;;4982850;28;20222;-59
2023/06/02 10:33:03;;;;;;;1.70;1.60;;;21.30;36.00;21.00;96009.00;;;;4992166;28;20206;-60
2023/06/02 10:36:01;;;;;;;1.00;1.00;;;21.30;37.40;21.10;96011.00;;;;4973852;28;20198;-59
2023/06/02 10:38:31;;;;;;;2.28;2.17;;;21.40;35.90;21.10;96004.00;;;;4973263;28;20269;-59
2023/06/02 10:41:00;;;;;;;1.20;1.20;;;21.50;35.70;21.20;96005.00;;;;4973504;28;20249;-59
2023/06/02 10:43:29;;;;;;;1.60;1.50;;;21.50;36.30;21.40;96005.00;;;;4973509;28;20209;-59
2023/06/02 10:46:17;;;;;;;2.35;1.77;;;21.70;36.60;21.50;96007.00;;;;4973563;28;20230;-62
2023/06/02 10:48:44;;;;;;;1.73;1.63;;;21.90;35.60;21.50;96004.00;;;;4971612;28;20187;-63
2023/06/02 10:51:13;;;;;;;1.52;1.42;;;22.00;35.40;21.70;96000.00;;;;4973034;28;20198;-61
2023/06/02 10:54:15;;;;;;;2.38;1.70;;;22.00;34.80;21.60;95999.00;;;;4973687;28;20274;-60
2023/06/02 10:56:47;;;;;;;1.65;1.42;;;22.00;34.30;21.80;95988.00;;;;4989694;28;20254;-61
2023/06/02 10:59:36;;;;;;;1.30;1.25;;;22.10;35.60;21.60;95995.00;;;;4992669;28;20217;-60
2023/06/02 11:02:04;;;;;;;1.02;1.02;;;22.10;34.30;22.00;96000.00;;;;4991551;28;20313;-59
2023/06/02 11:04:32;;;;;;;1.63;1.30;;;22.20;35.60;21.90;96006.00;;;;4992630;28;20202;-60
2023/06/02 11:07:21;;;;;;;2.03;1.48;;;22.30;34.00;21.90;96003.00;;;;4992268;28;20535;-60